Malaysia Virtual Airlines Airport Information Service

Tribhuwan Airport

ICAO: VNKT Country: Nepal
Latitude: 27.6966 Longitude: 85.3591
Latest Arrival : MH114 (WMKK-VNKT) Latest Departure : MH115 (VNKT-WMKK)


WX CaptureLIVE
Data provided by noaa.gov | Fetched at 05:55:49

METAR : VNKT 290520Z VRB02KT 5000 HZ FEW015 18/10 Q1023 NOSIG

TAF : VNKT 282300Z 2900/2924 VRB02KT 3500 BR FEW010 SCT030 PROB30 2901/2903 1500 BR BECMG 2904/2906 23003KT 4000 BR FEW015 BECMG 2908/2910 27006KT 6000 FEW015 SCT100 BECMG 2914/2915 08003KT 5000 BR FEW015 SCT100


Runway Data for VNKT
Data provided by openaviationdata.com

Runway ID Mag Var Hdg Length Elevation Surface ILS Freq ILS Id ILS Slope
2 -1 21° 10029 ft 4351 ft Bituminous -- -- --
20 -1 201° 10029 ft 4351 ft Bituminous -- -- --

Tribhuwan Airport, Nepal
Use only for reference purposes



Not for navigational purposes.